sensor_id;sensor_type;location;lat;lon;timestamp;pressure;altitude;pressure_sealevel;temperature;humidity
37878;BME280;23715;53.652;8.516;2023-06-14T00:03:07;101952.73;;;17.53;100.00
37878;BME280;23715;53.652;8.516;2023-06-14T00:08:10;101949.03;;;17.58;100.00
37878;BME280;23715;53.652;8.516;2023-06-14T00:13:11;101948.23;;;17.62;100.00
37878;BME280;23715;53.652;8.516;2023-06-14T00:18:19;101947.67;;;17.58;100.00
37878;BME280;23715;53.652;8.516;2023-06-14T00:23:21;101948.23;;;17.48;100.00
37878;BME280;23715;53.652;8.516;2023-06-14T00:28:27;101952.93;;;17.18;100.00
37878;BME280;23715;53.652;8.516;2023-06-14T00:33:28;101952.88;;;17.14;100.00
37878;BME280;23715;53.652;8.516;2023-06-14T00:38:34;101958.13;;;17.25;100.00
37878;BME280;23715;53.652;8.516;2023-06-14T00:43:36;101962.48;;;17.08;100.00
37878;BME280;23715;53.652;8.516;2023-06-14T00:48:37;101957.09;;;17.12;100.00
37878;BME280;23715;53.652;8.516;2023-06-14T00:53:44;101961.01;;;17.00;100.00
37878;BME280;23715;53.652;8.516;2023-06-14T00:58:46;101963.81;;;16.94;100.00
37878;BME280;23715;53.652;8.516;2023-06-14T01:03:51;101967.52;;;16.93;100.00
37878;BME280;23715;53.652;8.516;2023-06-14T01:08:59;101969.47;;;16.87;100.00
37878;BME280;23715;53.652;8.516;2023-06-14T01:14:02;101970.81;;;16.77;100.00
37878;BME280;23715;53.652;8.516;2023-06-14T01:19:07;101981.47;;;16.55;100.00
37878;BME280;23715;53.652;8.516;2023-06-14T01:24:09;101971.25;;;16.53;100.00
37878;BME280;23715;53.652;8.516;2023-06-14T01:29:25;101969.76;;;16.55;100.00
37878;BME280;23715;53.652;8.516;2023-06-14T01:34:21;101975.83;;;16.63;100.00
37878;BME280;23715;53.652;8.516;2023-06-14T01:39:23;101976.11;;;16.40;100.00
37878;BME280;23715;53.652;8.516;2023-06-14T01:44:25;101983.61;;;16.42;100.00
37878;BME280;23715;53.652;8.516;2023-06-14T01:49:33;101984.84;;;16.34;100.00
37878;BME280;23715;53.652;8.516;2023-06-14T01:54:35;101986.26;;;16.28;100.00
37878;BME280;23715;53.652;8.516;2023-06-14T01:59:37;101993.30;;;16.06;100.00
37878;BME280;23715;53.652;8.516;2023-06-14T02:04:45;101988.73;;;16.26;100.00
37878;BME280;23715;53.652;8.516;2023-06-14T02:09:46;101988.33;;;16.20;100.00
37878;BME280;23715;53.652;8.516;2023-06-14T02:14:50;101983.48;;;16.34;100.00
37878;BME280;23715;53.652;8.516;2023-06-14T02:19:55;101986.26;;;16.28;100.00
37878;BME280;23715;53.652;8.516;2023-06-14T02:24:58;101986.97;;;16.50;100.00
37878;BME280;23715;53.652;8.516;2023-06-14T02:30:01;101991.69;;;16.38;100.00
37878;BME280;23715;53.652;8.516;2023-06-14T02:35:05;101993.24;;;16.21;100.00
37878;BME280;23715;53.652;8.516;2023-06-14T02:40:10;101994.33;;;16.14;100.00
37878;BME280;23715;53.652;8.516;2023-06-14T02:45:12;102001.95;;;16.05;100.00
37878;BME280;23715;53.652;8.516;2023-06-14T02:50:14;102002.92;;;16.04;100.00
37878;BME280;23715;53.652;8.516;2023-06-14T02:55:19;102011.33;;;16.01;100.00
37878;BME280;23715;53.652;8.516;2023-06-14T03:00:20;102007.75;;;15.91;100.00
37878;BME280;23715;53.652;8.516;2023-06-14T03:05:22;102022.83;;;15.99;100.00
37878;BME280;23715;53.652;8.516;2023-06-14T03:10:24;102020.77;;;16.07;100.00
37878;BME280;23715;53.652;8.516;2023-06-14T03:15:26;102027.86;;;16.04;100.00
37878;BME280;23715;53.652;8.516;2023-06-14T03:20:38;102033.47;;;15.96;100.00
37878;BME280;23715;53.652;8.516;2023-06-14T03:25:42;102040.46;;;15.99;100.00
37878;BME280;23715;53.652;8.516;2023-06-14T03:30:45;102047.48;;;16.02;100.00
37878;BME280;23715;53.652;8.516;2023-06-14T03:35:47;102046.47;;;15.77;100.00
37878;BME280;23715;53.652;8.516;2023-06-14T03:40:48;102055.14;;;15.87;100.00
37878;BME280;23715;53.652;8.516;2023-06-14T03:45:49;102060.91;;;15.88;100.00
37878;BME280;23715;53.652;8.516;2023-06-14T03:50:54;102064.53;;;15.98;100.00
37878;BME280;23715;53.652;8.516;2023-06-14T03:55:59;102065.52;;;15.97;100.00
37878;BME280;23715;53.652;8.516;2023-06-14T04:01:03;102063.92;;;16.10;100.00
37878;BME280;23715;53.652;8.516;2023-06-14T04:06:04;102074.67;;;15.96;100.00
37878;BME280;23715;53.652;8.516;2023-06-14T04:11:07;102079.44;;;16.13;100.00
37878;BME280;23715;53.652;8.516;2023-06-14T04:16:14;102083.77;;;16.10;100.00
37878;BME280;23715;53.652;8.516;2023-06-14T04:21:17;102089.22;;;16.20;100.00
37878;BME280;23715;53.652;8.516;2023-06-14T04:26:22;102090.37;;;16.17;100.00
37878;BME280;23715;53.652;8.516;2023-06-14T04:31:32;102092.39;;;16.25;100.00
37878;BME280;23715;53.652;8.516;2023-06-14T04:36:40;102095.50;;;16.36;100.00
37878;BME280;23715;53.652;8.516;2023-06-14T04:41:40;102096.11;;;16.69;100.00
37878;BME280;23715;53.652;8.516;2023-06-14T04:46:41;102101.16;;;17.03;100.00
37878;BME280;23715;53.652;8.516;2023-06-14T04:51:53;102099.67;;;16.85;100.00
37878;BME280;23715;53.652;8.516;2023-06-14T04:56:59;102096.01;;;16.90;100.00
37878;BME280;23715;53.652;8.516;2023-06-14T05:02:03;102091.00;;;17.05;100.00
37878;BME280;23715;53.652;8.516;2023-06-14T05:07:08;102094.22;;;17.14;100.00
37878;BME280;23715;53.652;8.516;2023-06-14T05:12:12;102080.09;;;17.24;100.00
37878;BME280;23715;53.652;8.516;2023-06-14T05:17:14;102090.25;;;17.42;100.00
37878;BME280;23715;53.652;8.516;2023-06-14T05:22:17;102091.36;;;17.59;100.00
37878;BME280;23715;53.652;8.516;2023-06-14T05:27:19;102095.89;;;17.44;100.00
37878;BME280;23715;53.652;8.516;2023-06-14T05:32:20;102093.95;;;17.41;100.00
37878;BME280;23715;53.652;8.516;2023-06-14T05:37:22;102092.89;;;17.47;100.00
37878;BME280;23715;53.652;8.516;2023-06-14T05:42:25;102102.30;;;17.86;100.00
37878;BME280;23715;53.652;8.516;2023-06-14T05:47:29;102104.98;;;17.96;100.00
37878;BME280;23715;53.652;8.516;2023-06-14T05:52:34;102102.07;;;18.35;100.00
37878;BME280;23715;53.652;8.516;2023-06-14T05:57:38;102100.38;;;18.38;100.00
37878;BME280;23715;53.652;8.516;2023-06-14T06:02:42;102106.34;;;18.38;100.00
37878;BME280;23715;53.652;8.516;2023-06-14T06:07:43;102104.81;;;18.53;100.00
37878;BME280;23715;53.652;8.516;2023-06-14T06:12:46;102112.50;;;18.53;100.00
37878;BME280;23715;53.652;8.516;2023-06-14T06:17:51;102115.12;;;18.77;100.00
37878;BME280;23715;53.652;8.516;2023-06-14T06:22:57;102116.09;;;18.86;100.00
37878;BME280;23715;53.652;8.516;2023-06-14T06:27:55;102119.93;;;19.15;100.00
37878;BME280;23715;53.652;8.516;2023-06-14T06:33:01;102112.74;;;19.32;100.00
37878;BME280;23715;53.652;8.516;2023-06-14T06:37:59;102111.92;;;19.36;100.00
37878;BME280;23715;53.652;8.516;2023-06-14T06:43:01;102116.78;;;19.50;100.00
37878;BME280;23715;53.652;8.516;2023-06-14T06:48:07;102124.22;;;19.62;100.00
37878;BME280;23715;53.652;8.516;2023-06-14T06:53:11;102130.08;;;19.71;100.00
37878;BME280;23715;53.652;8.516;2023-06-14T06:58:13;102126.22;;;20.12;100.00
37878;BME280;23715;53.652;8.516;2023-06-14T07:03:17;102128.63;;;20.15;100.00
37878;BME280;23715;53.652;8.516;2023-06-14T07:08:23;102127.16;;;20.33;100.00
37878;BME280;23715;53.652;8.516;2023-06-14T07:13:25;102131.00;;;20.53;100.00
37878;BME280;23715;53.652;8.516;2023-06-14T07:18:24;102132.45;;;20.77;100.00
37878;BME280;23715;53.652;8.516;2023-06-14T07:23:34;102139.45;;;20.80;100.00
37878;BME280;23715;53.652;8.516;2023-06-14T07:28:30;102143.55;;;20.72;100.00
37878;BME280;23715;53.652;8.516;2023-06-14T07:33:32;102134.53;;;21.12;100.00
37878;BME280;23715;53.652;8.516;2023-06-14T07:38:33;102135.39;;;21.29;100.00
37878;BME280;23715;53.652;8.516;2023-06-14T07:43:35;102133.85;;;21.51;100.00
37878;BME280;23715;53.652;8.516;2023-06-14T07:48:46;102131.31;;;21.50;100.00
37878;BME280;23715;53.652;8.516;2023-06-14T07:53:49;102127.52;;;21.67;100.00
37878;BME280;23715;53.652;8.516;2023-06-14T07:58:51;102119.64;;;21.64;100.00
37878;BME280;23715;53.652;8.516;2023-06-14T08:03:53;102119.37;;;21.98;100.00
37878;BME280;23715;53.652;8.516;2023-06-14T08:09:01;102115.23;;;22.11;100.00
37878;BME280;23715;53.652;8.516;2023-06-14T08:14:04;102117.66;;;22.01;100.00
37878;BME280;23715;53.652;8.516;2023-06-14T08:19:06;102122.06;;;22.15;100.00
37878;BME280;23715;53.652;8.516;2023-06-14T08:24:11;102114.13;;;22.32;100.00
37878;BME280;23715;53.652;8.516;2023-06-14T08:29:11;102116.20;;;22.30;100.00
37878;BME280;23715;53.652;8.516;2023-06-14T08:34:15;102110.56;;;22.28;100.00
37878;BME280;23715;53.652;8.516;2023-06-14T08:39:31;102115.69;;;22.62;100.00
37878;BME280;23715;53.652;8.516;2023-06-14T08:44:20;102113.67;;;22.52;100.00
37878;BME280;23715;53.652;8.516;2023-06-14T08:49:26;102108.73;;;22.78;100.00
37878;BME280;23715;53.652;8.516;2023-06-14T08:59:34;102107.44;;;23.16;100.00
37878;BME280;23715;53.652;8.516;2023-06-14T09:04:39;102105.86;;;23.18;100.00
37878;BME280;23715;53.652;8.516;2023-06-14T09:09:48;102105.02;;;23.17;100.00
37878;BME280;23715;53.652;8.516;2023-06-14T09:14:50;102105.41;;;23.48;100.00
37878;BME280;23715;53.652;8.516;2023-06-14T09:19:50;102110.48;;;23.55;100.00
37878;BME280;23715;53.652;8.516;2023-06-14T09:24:56;102108.09;;;23.56;100.00
37878;BME280;23715;53.652;8.516;2023-06-14T09:29:57;102110.79;;;23.61;100.00
37878;BME280;23715;53.652;8.516;2023-06-14T09:35:04;102113.01;;;23.61;100.00
37878;BME280;23715;53.652;8.516;2023-06-14T09:40:06;102114.50;;;23.68;100.00
37878;BME280;23715;53.652;8.516;2023-06-14T09:45:06;102114.20;;;23.82;100.00
37878;BME280;23715;53.652;8.516;2023-06-14T09:50:07;102121.48;;;23.89;100.00
37878;BME280;23715;53.652;8.516;2023-06-14T09:55:15;102122.86;;;23.89;100.00
37878;BME280;23715;53.652;8.516;2023-06-14T10:00:17;102128.20;;;24.02;100.00
37878;BME280;23715;53.652;8.516;2023-06-14T10:05:22;102133.78;;;23.59;100.00
37878;BME280;23715;53.652;8.516;2023-06-14T10:10:26;102133.03;;;24.00;100.00
37878;BME280;23715;53.652;8.516;2023-06-14T10:15:38;102124.66;;;23.82;100.00
37878;BME280;23715;53.652;8.516;2023-06-14T10:25:59;102115.34;;;23.68;100.00
37878;BME280;23715;53.652;8.516;2023-06-14T10:31:10;102116.21;;;24.28;100.00
37878;BME280;23715;53.652;8.516;2023-06-14T10:36:30;102114.20;;;24.22;100.00
37878;BME280;23715;53.652;8.516;2023-06-14T10:41:35;102113.88;;;24.47;100.00
37878;BME280;23715;53.652;8.516;2023-06-14T10:46:36;102114.02;;;24.24;100.00
37878;BME280;23715;53.652;8.516;2023-06-14T10:51:46;102114.30;;;24.29;100.00
37878;BME280;23715;53.652;8.516;2023-06-14T10:56:52;102113.16;;;24.53;100.00
37878;BME280;23715;53.652;8.516;2023-06-14T11:12:58;102091.17;;;24.85;100.00
37878;BME280;23715;53.652;8.516;2023-06-14T11:17:51;102090.63;;;24.53;100.00
37878;BME280;23715;53.652;8.516;2023-06-14T11:22:58;102085.27;;;24.99;100.00
37878;BME280;23715;53.652;8.516;2023-06-14T11:28:06;102086.45;;;24.90;100.00
37878;BME280;23715;53.652;8.516;2023-06-14T11:33:09;102089.25;;;24.39;100.00
37878;BME280;23715;53.652;8.516;2023-06-14T11:38:11;102083.72;;;24.28;100.00
37878;BME280;23715;53.652;8.516;2023-06-14T11:43:18;102062.59;;;24.86;100.00
37878;BME280;23715;53.652;8.516;2023-06-14T11:48:16;102068.11;;;25.36;100.00
37878;BME280;23715;53.652;8.516;2023-06-14T11:53:20;102068.71;;;25.21;97.13
37878;BME280;23715;53.652;8.516;2023-06-14T11:58:20;102050.58;;;25.44;100.00
37878;BME280;23715;53.652;8.516;2023-06-14T12:03:29;102053.25;;;25.30;100.00
37878;BME280;23715;53.652;8.516;2023-06-14T12:08:39;102042.77;;;25.47;100.00
37878;BME280;23715;53.652;8.516;2023-06-14T12:13:40;102047.50;;;25.54;95.05
37878;BME280;23715;53.652;8.516;2023-06-14T12:18:42;102048.67;;;25.73;95.82
37878;BME280;23715;53.652;8.516;2023-06-14T12:23:50;102044.55;;;25.97;96.63
37878;BME280;23715;53.652;8.516;2023-06-14T12:28:53;102049.86;;;26.22;96.96
37878;BME280;23715;53.652;8.516;2023-06-14T12:33:54;102041.59;;;26.29;90.99
37878;BME280;23715;53.652;8.516;2023-06-14T12:39:02;102048.95;;;25.67;93.84
37878;BME280;23715;53.652;8.516;2023-06-14T12:44:16;102043.63;;;25.89;95.96
37878;BME280;23715;53.652;8.516;2023-06-14T12:49:16;102033.57;;;26.03;94.87
37878;BME280;23715;53.652;8.516;2023-06-14T12:54:18;102024.07;;;26.13;91.57
37878;BME280;23715;53.652;8.516;2023-06-14T12:59:24;102026.26;;;26.44;92.17
37878;BME280;23715;53.652;8.516;2023-06-14T13:04:29;102034.71;;;26.66;88.83
37878;BME280;23715;53.652;8.516;2023-06-14T13:09:31;102031.02;;;26.02;88.85
37878;BME280;23715;53.652;8.516;2023-06-14T13:14:31;102023.29;;;25.84;90.61
37878;BME280;23715;53.652;8.516;2023-06-14T13:19:35;102019.94;;;26.19;90.65
37878;BME280;23715;53.652;8.516;2023-06-14T13:24:38;102008.09;;;26.70;85.63
37878;BME280;23715;53.652;8.516;2023-06-14T13:29:40;102019.97;;;26.70;84.86
37878;BME280;23715;53.652;8.516;2023-06-14T13:34:42;102018.83;;;26.38;81.25
37878;BME280;23715;53.652;8.516;2023-06-14T13:39:43;102019.55;;;25.98;84.12
37878;BME280;23715;53.652;8.516;2023-06-14T13:44:47;102015.12;;;26.48;88.65
37878;BME280;23715;53.652;8.516;2023-06-14T13:49:52;102012.22;;;27.10;86.68
37878;BME280;23715;53.652;8.516;2023-06-14T13:54:55;102009.36;;;27.00;78.24
37878;BME280;23715;53.652;8.516;2023-06-14T13:59:56;102006.15;;;26.63;78.37
37878;BME280;23715;53.652;8.516;2023-06-14T14:05:00;102003.84;;;26.87;78.45
37878;BME280;23715;53.652;8.516;2023-06-14T14:10:02;101993.84;;;26.86;75.71
37878;BME280;23715;53.652;8.516;2023-06-14T14:15:06;101992.80;;;27.00;76.43
37878;BME280;23715;53.652;8.516;2023-06-14T14:20:10;101988.75;;;27.10;78.46
37878;BME280;23715;53.652;8.516;2023-06-14T14:25:17;101989.39;;;26.78;82.31
37878;BME280;23715;53.652;8.516;2023-06-14T14:30:23;101991.20;;;26.68;83.30
37878;BME280;23715;53.652;8.516;2023-06-14T14:35:24;101989.72;;;26.93;74.45
37878;BME280;23715;53.652;8.516;2023-06-14T14:40:26;101998.09;;;26.68;73.86
37878;BME280;23715;53.652;8.516;2023-06-14T14:45:34;101995.92;;;26.44;74.81
37878;BME280;23715;53.652;8.516;2023-06-14T14:50:34;101988.23;;;26.83;76.01
37878;BME280;23715;53.652;8.516;2023-06-14T14:55:38;101985.48;;;26.90;79.62
37878;BME280;23715;53.652;8.516;2023-06-14T15:00:40;101982.37;;;26.96;83.09
37878;BME280;23715;53.652;8.516;2023-06-14T15:05:40;101988.66;;;26.60;83.00
37878;BME280;23715;53.652;8.516;2023-06-14T15:10:46;101996.63;;;26.28;83.54
37878;BME280;23715;53.652;8.516;2023-06-14T15:15:50;101997.70;;;25.97;85.42
37878;BME280;23715;53.652;8.516;2023-06-14T15:21:01;102000.16;;;25.78;95.02
37878;BME280;23715;53.652;8.516;2023-06-14T15:26:06;101987.67;;;25.41;100.00
37878;BME280;23715;53.652;8.516;2023-06-14T15:31:08;101985.26;;;24.74;100.00
37878;BME280;23715;53.652;8.516;2023-06-14T15:36:11;101985.94;;;24.51;100.00
37878;BME280;23715;53.652;8.516;2023-06-14T15:41:13;101990.67;;;24.46;100.00
37878;BME280;23715;53.652;8.516;2023-06-14T15:46:17;101990.25;;;24.53;100.00
37878;BME280;23715;53.652;8.516;2023-06-14T15:51:26;101996.91;;;24.77;100.00
37878;BME280;23715;53.652;8.516;2023-06-14T15:56:28;101992.96;;;24.97;100.00
37878;BME280;23715;53.652;8.516;2023-06-14T16:01:29;101983.40;;;25.38;100.00
37878;BME280;23715;53.652;8.516;2023-06-14T16:06:31;101981.03;;;25.70;100.00
37878;BME280;23715;53.652;8.516;2023-06-14T16:11:41;101990.22;;;25.84;100.00
37878;BME280;23715;53.652;8.516;2023-06-14T16:16:41;101977.83;;;25.90;100.00
37878;BME280;23715;53.652;8.516;2023-06-14T16:21:47;101983.82;;;26.01;100.00
37878;BME280;23715;53.652;8.516;2023-06-14T16:26:52;101980.97;;;25.98;100.00
37878;BME280;23715;53.652;8.516;2023-06-14T16:31:56;101980.48;;;25.64;100.00
37878;BME280;23715;53.652;8.516;2023-06-14T16:37:01;101977.68;;;25.57;100.00
37878;BME280;23715;53.652;8.516;2023-06-14T16:42:10;101984.72;;;25.42;100.00
37878;BME280;23715;53.652;8.516;2023-06-14T16:47:15;101985.42;;;25.82;100.00
37878;BME280;23715;53.652;8.516;2023-06-14T16:52:26;101982.44;;;26.01;100.00
37878;BME280;23715;53.652;8.516;2023-06-14T16:57:27;101975.99;;;26.04;100.00
37878;BME280;23715;53.652;8.516;2023-06-14T17:02:29;101985.23;;;25.59;100.00
37878;BME280;23715;53.652;8.516;2023-06-14T17:07:33;101985.25;;;25.66;100.00
37878;BME280;23715;53.652;8.516;2023-06-14T17:12:36;101987.55;;;25.56;100.00
37878;BME280;23715;53.652;8.516;2023-06-14T17:22:47;101988.05;;;25.55;100.00
37878;BME280;23715;53.652;8.516;2023-06-14T17:27:57;101993.13;;;25.34;100.00
37878;BME280;23715;53.652;8.516;2023-06-14T17:32:54;101996.86;;;25.37;100.00
37878;BME280;23715;53.652;8.516;2023-06-14T17:38:15;101996.36;;;25.62;100.00
37878;BME280;23715;53.652;8.516;2023-06-14T17:43:06;102005.29;;;25.46;100.00
37878;BME280;23715;53.652;8.516;2023-06-14T17:48:08;102008.34;;;25.19;100.00
37878;BME280;23715;53.652;8.516;2023-06-14T17:53:16;102006.07;;;25.23;100.00
37878;BME280;23715;53.652;8.516;2023-06-14T17:58:18;102009.77;;;25.08;100.00
37878;BME280;23715;53.652;8.516;2023-06-14T18:03:27;102007.32;;;25.09;100.00
37878;BME280;23715;53.652;8.516;2023-06-14T18:08:29;102010.33;;;25.14;100.00
37878;BME280;23715;53.652;8.516;2023-06-14T18:18:57;102014.39;;;25.29;100.00
37878;BME280;23715;53.652;8.516;2023-06-14T18:23:59;102016.45;;;25.73;100.00
37878;BME280;23715;53.652;8.516;2023-06-14T18:29:13;102007.70;;;27.49;100.00
37878;BME280;23715;53.652;8.516;2023-06-14T18:34:11;102014.62;;;28.52;100.00
37878;BME280;23715;53.652;8.516;2023-06-14T18:39:17;102024.48;;;28.57;100.00
37878;BME280;23715;53.652;8.516;2023-06-14T18:44:25;102028.40;;;28.75;100.00
37878;BME280;23715;53.652;8.516;2023-06-14T18:49:32;102026.21;;;28.68;100.00
37878;BME280;23715;53.652;8.516;2023-06-14T18:54:34;102028.33;;;28.81;88.46
37878;BME280;23715;53.652;8.516;2023-06-14T18:59:41;102031.89;;;28.64;82.17
37878;BME280;23715;53.652;8.516;2023-06-14T19:04:47;102042.15;;;28.34;79.60
37878;BME280;23715;53.652;8.516;2023-06-14T19:09:52;102035.98;;;27.93;79.83
37878;BME280;23715;53.652;8.516;2023-06-14T19:14:58;102042.70;;;27.19;82.05
37878;BME280;23715;53.652;8.516;2023-06-14T19:20:08;102048.89;;;25.95;87.79
37878;BME280;23715;53.652;8.516;2023-06-14T19:25:13;102051.48;;;25.33;89.16
37878;BME280;23715;53.652;8.516;2023-06-14T19:30:13;102058.86;;;24.94;91.77
37878;BME280;23715;53.652;8.516;2023-06-14T19:35:18;102062.54;;;24.69;93.67
37878;BME280;23715;53.652;8.516;2023-06-14T19:40:21;102064.79;;;24.44;94.87
37878;BME280;23715;53.652;8.516;2023-06-14T19:45:21;102070.52;;;24.27;96.99
37878;BME280;23715;53.652;8.516;2023-06-14T19:50:23;102077.11;;;23.96;99.92
37878;BME280;23715;53.652;8.516;2023-06-14T19:55:26;102083.80;;;23.83;99.55
37878;BME280;23715;53.652;8.516;2023-06-14T20:00:28;102080.11;;;23.72;99.77
37878;BME280;23715;53.652;8.516;2023-06-14T20:05:30;102084.22;;;23.57;100.00
37878;BME280;23715;53.652;8.516;2023-06-14T20:10:35;102083.03;;;23.55;100.00
37878;BME280;23715;53.652;8.516;2023-06-14T20:15:37;102095.63;;;23.31;100.00
37878;BME280;23715;53.652;8.516;2023-06-14T20:20:42;102094.56;;;23.17;100.00
37878;BME280;23715;53.652;8.516;2023-06-14T20:25:47;102103.42;;;23.00;100.00
37878;BME280;23715;53.652;8.516;2023-06-14T20:30:49;102105.50;;;22.98;100.00
37878;BME280;23715;53.652;8.516;2023-06-14T20:35:51;102110.34;;;22.65;100.00
37878;BME280;23715;53.652;8.516;2023-06-14T20:40:56;102110.17;;;22.39;100.00
37878;BME280;23715;53.652;8.516;2023-06-14T20:46:00;102107.60;;;22.37;100.00
37878;BME280;23715;53.652;8.516;2023-06-14T20:51:01;102110.20;;;22.35;100.00
37878;BME280;23715;53.652;8.516;2023-06-14T20:56:03;102111.56;;;22.35;100.00
37878;BME280;23715;53.652;8.516;2023-06-14T21:01:18;102109.02;;;22.25;100.00
37878;BME280;23715;53.652;8.516;2023-06-14T21:06:21;102118.00;;;21.98;100.00
37878;BME280;23715;53.652;8.516;2023-06-14T21:11:21;102121.86;;;21.60;100.00
37878;BME280;23715;53.652;8.516;2023-06-14T21:16:22;102130.77;;;21.25;100.00
37878;BME280;23715;53.652;8.516;2023-06-14T21:21:23;102132.30;;;21.03;100.00
37878;BME280;23715;53.652;8.516;2023-06-14T21:26:29;102144.58;;;20.32;100.00
37878;BME280;23715;53.652;8.516;2023-06-14T21:31:29;102146.45;;;19.49;100.00
37878;BME280;23715;53.652;8.516;2023-06-14T21:36:41;102154.19;;;18.68;100.00
37878;BME280;23715;53.652;8.516;2023-06-14T21:41:38;102146.89;;;19.18;100.00
37878;BME280;23715;53.652;8.516;2023-06-14T21:46:41;102142.83;;;19.44;100.00
37878;BME280;23715;53.652;8.516;2023-06-14T21:51:43;102142.83;;;19.44;100.00
37878;BME280;23715;53.652;8.516;2023-06-14T21:56:45;102144.70;;;19.04;100.00
37878;BME280;23715;53.652;8.516;2023-06-14T22:01:45;102144.65;;;19.36;100.00
37878;BME280;23715;53.652;8.516;2023-06-14T22:06:45;102147.38;;;19.18;100.00
37878;BME280;23715;53.652;8.516;2023-06-14T22:11:50;102139.32;;;19.12;100.00
37878;BME280;23715;53.652;8.516;2023-06-14T22:16:54;102144.17;;;19.18;100.00
37878;BME280;23715;53.652;8.516;2023-06-14T22:21:57;102145.86;;;18.83;100.00
37878;BME280;23715;53.652;8.516;2023-06-14T22:27:01;102145.06;;;18.73;100.00
37878;BME280;23715;53.652;8.516;2023-06-14T22:32:06;102152.25;;;18.46;100.00
37878;BME280;23715;53.652;8.516;2023-06-14T22:37:07;102139.55;;;17.86;100.00
37878;BME280;23715;53.652;8.516;2023-06-14T22:42:08;102138.06;;;18.15;100.00
37878;BME280;23715;53.652;8.516;2023-06-14T22:47:10;102148.47;;;18.29;100.00
37878;BME280;23715;53.652;8.516;2023-06-14T22:52:18;102141.39;;;18.09;100.00
37878;BME280;23715;53.652;8.516;2023-06-14T22:57:15;102135.20;;;18.17;100.00
37878;BME280;23715;53.652;8.516;2023-06-14T23:02:15;102125.66;;;18.17;100.00
37878;BME280;23715;53.652;8.516;2023-06-14T23:07:15;102126.47;;;17.99;100.00
37878;BME280;23715;53.652;8.516;2023-06-14T23:12:17;102132.14;;;17.92;100.00
37878;BME280;23715;53.652;8.516;2023-06-14T23:17:22;102129.68;;;17.42;100.00
37878;BME280;23715;53.652;8.516;2023-06-14T23:22:24;102136.48;;;17.22;100.00
37878;BME280;23715;53.652;8.516;2023-06-14T23:27:27;102127.91;;;17.60;100.00
37878;BME280;23715;53.652;8.516;2023-06-14T23:32:32;102132.15;;;17.82;100.00
37878;BME280;23715;53.652;8.516;2023-06-14T23:37:40;102128.10;;;17.72;100.00
37878;BME280;23715;53.652;8.516;2023-06-14T23:42:41;102138.18;;;17.43;100.00
37878;BME280;23715;53.652;8.516;2023-06-14T23:47:45;102140.34;;;17.29;100.00
37878;BME280;23715;53.652;8.516;2023-06-14T23:52:44;102139.35;;;17.30;100.00
37878;BME280;23715;53.652;8.516;2023-06-14T23:57:46;102142.50;;;17.16;100.00
